sensor_id;sensor_type;location;lat;lon;timestamp;temperature;humidity
37594;DHT22;23441;50.856;6.076;2022-09-01T00:01:15;15.60;99.90
37594;DHT22;23441;50.856;6.076;2022-09-01T00:03:47;15.60;99.90
37594;DHT22;23441;50.856;6.076;2022-09-01T00:06:17;15.60;99.90
37594;DHT22;23441;50.856;6.076;2022-09-01T00:08:54;15.60;99.90
37594;DHT22;23441;50.856;6.076;2022-09-01T00:11:22;15.40;99.90
37594;DHT22;23441;50.856;6.076;2022-09-01T00:13:50;15.30;99.90
37594;DHT22;23441;50.856;6.076;2022-09-01T00:16:18;15.30;99.90
37594;DHT22;23441;50.856;6.076;2022-09-01T00:18:47;15.20;99.90
37594;DHT22;23441;50.856;6.076;2022-09-01T00:21:16;15.20;99.90
37594;DHT22;23441;50.856;6.076;2022-09-01T00:23:43;15.20;99.90
37594;DHT22;23441;50.856;6.076;2022-09-01T00:26:10;15.20;99.90
37594;DHT22;23441;50.856;6.076;2022-09-01T00:28:36;15.20;99.90
37594;DHT22;23441;50.856;6.076;2022-09-01T00:31:04;15.20;99.90
37594;DHT22;23441;50.856;6.076;2022-09-01T00:33:33;15.30;99.90
37594;DHT22;23441;50.856;6.076;2022-09-01T00:36:00;15.30;99.90
37594;DHT22;23441;50.856;6.076;2022-09-01T00:38:26;15.30;99.90
37594;DHT22;23441;50.856;6.076;2022-09-01T00:40:53;15.20;99.90
37594;DHT22;23441;50.856;6.076;2022-09-01T00:43:53;15.10;99.90
37594;DHT22;23441;50.856;6.076;2022-09-01T00:46:25;15.10;99.90
37594;DHT22;23441;50.856;6.076;2022-09-01T00:51:54;15.10;99.90
37594;DHT22;23441;50.856;6.076;2022-09-01T00:54:28;15.00;99.90
37594;DHT22;23441;50.856;6.076;2022-09-01T00:56:57;15.00;99.90
37594;DHT22;23441;50.856;6.076;2022-09-01T00:59:24;14.90;99.90
37594;DHT22;23441;50.856;6.076;2022-09-01T01:01:51;14.90;99.90
37594;DHT22;23441;50.856;6.076;2022-09-01T01:04:18;14.90;99.90
37594;DHT22;23441;50.856;6.076;2022-09-01T01:06:48;14.80;99.90
37594;DHT22;23441;50.856;6.076;2022-09-01T01:09:24;14.80;99.90
37594;DHT22;23441;50.856;6.076;2022-09-01T01:11:52;14.70;99.90
37594;DHT22;23441;50.856;6.076;2022-09-01T01:14:18;14.60;99.90
37594;DHT22;23441;50.856;6.076;2022-09-01T01:16:48;14.70;99.90
37594;DHT22;23441;50.856;6.076;2022-09-01T01:19:19;14.60;99.90
37594;DHT22;23441;50.856;6.076;2022-09-01T01:22:12;14.60;99.90
37594;DHT22;23441;50.856;6.076;2022-09-01T01:25:06;14.60;99.90
37594;DHT22;23441;50.856;6.076;2022-09-01T01:27:33;14.50;99.90
37594;DHT22;23441;50.856;6.076;2022-09-01T01:30:03;14.50;99.90
37594;DHT22;23441;50.856;6.076;2022-09-01T01:32:34;14.50;99.90
37594;DHT22;23441;50.856;6.076;2022-09-01T01:35:00;14.50;99.90
37594;DHT22;23441;50.856;6.076;2022-09-01T01:37:33;14.40;99.90
37594;DHT22;23441;50.856;6.076;2022-09-01T01:40:01;14.40;99.90
37594;DHT22;23441;50.856;6.076;2022-09-01T01:42:28;14.40;99.90
37594;DHT22;23441;50.856;6.076;2022-09-01T01:44:54;14.40;99.90
37594;DHT22;23441;50.856;6.076;2022-09-01T01:47:20;14.30;99.90
37594;DHT22;23441;50.856;6.076;2022-09-01T01:49:47;14.30;99.90
37594;DHT22;23441;50.856;6.076;2022-09-01T01:52:13;14.30;99.90
37594;DHT22;23441;50.856;6.076;2022-09-01T01:54:43;14.20;99.90
37594;DHT22;23441;50.856;6.076;2022-09-01T01:57:11;14.10;99.90
37594;DHT22;23441;50.856;6.076;2022-09-01T01:59:41;14.10;99.90
37594;DHT22;23441;50.856;6.076;2022-09-01T02:02:08;14.10;99.90
37594;DHT22;23441;50.856;6.076;2022-09-01T02:04:34;14.00;99.90
37594;DHT22;23441;50.856;6.076;2022-09-01T02:07:00;14.10;99.90
37594;DHT22;23441;50.856;6.076;2022-09-01T02:09:26;14.00;99.90
37594;DHT22;23441;50.856;6.076;2022-09-01T02:11:52;14.00;99.90
37594;DHT22;23441;50.856;6.076;2022-09-01T02:14:22;14.00;99.90
37594;DHT22;23441;50.856;6.076;2022-09-01T02:16:48;14.00;99.90
37594;DHT22;23441;50.856;6.076;2022-09-01T02:19:15;14.00;99.90
37594;DHT22;23441;50.856;6.076;2022-09-01T02:21:44;13.90;99.90
37594;DHT22;23441;50.856;6.076;2022-09-01T02:24:22;14.00;99.90
37594;DHT22;23441;50.856;6.076;2022-09-01T02:26:53;14.00;99.90
37594;DHT22;23441;50.856;6.076;2022-09-01T02:29:21;14.10;99.90
37594;DHT22;23441;50.856;6.076;2022-09-01T02:31:51;14.10;99.90
37594;DHT22;23441;50.856;6.076;2022-09-01T02:34:18;14.00;99.90
37594;DHT22;23441;50.856;6.076;2022-09-01T02:36:47;14.00;99.90
37594;DHT22;23441;50.856;6.076;2022-09-01T02:39:23;14.00;99.90
37594;DHT22;23441;50.856;6.076;2022-09-01T02:41:51;14.00;99.90
37594;DHT22;23441;50.856;6.076;2022-09-01T02:44:18;14.00;99.90
37594;DHT22;23441;50.856;6.076;2022-09-01T02:46:47;13.90;99.90
37594;DHT22;23441;50.856;6.076;2022-09-01T02:49:18;13.80;99.90
37594;DHT22;23441;50.856;6.076;2022-09-01T02:51:51;13.80;99.90
37594;DHT22;23441;50.856;6.076;2022-09-01T02:54:20;13.70;99.90
37594;DHT22;23441;50.856;6.076;2022-09-01T02:56:47;13.70;99.90
37594;DHT22;23441;50.856;6.076;2022-09-01T02:59:17;13.70;99.90
37594;DHT22;23441;50.856;6.076;2022-09-01T03:01:50;13.60;99.90
37594;DHT22;23441;50.856;6.076;2022-09-01T03:04:19;13.60;99.90
37594;DHT22;23441;50.856;6.076;2022-09-01T03:06:47;13.50;99.90
37594;DHT22;23441;50.856;6.076;2022-09-01T03:09:16;13.50;99.90
37594;DHT22;23441;50.856;6.076;2022-09-01T03:11:46;13.40;99.90
37594;DHT22;23441;50.856;6.076;2022-09-01T03:14:13;13.40;99.90
37594;DHT22;23441;50.856;6.076;2022-09-01T03:16:40;13.40;99.90
37594;DHT22;23441;50.856;6.076;2022-09-01T03:19:07;13.30;99.90
37594;DHT22;23441;50.856;6.076;2022-09-01T03:21:35;13.30;99.90
37594;DHT22;23441;50.856;6.076;2022-09-01T03:24:06;13.20;99.90
37594;DHT22;23441;50.856;6.076;2022-09-01T03:26:34;13.20;99.90
37594;DHT22;23441;50.856;6.076;2022-09-01T03:29:00;13.20;99.90
37594;DHT22;23441;50.856;6.076;2022-09-01T03:31:27;13.20;99.90
37594;DHT22;23441;50.856;6.076;2022-09-01T03:33:57;13.10;99.90
37594;DHT22;23441;50.856;6.076;2022-09-01T03:36:25;13.10;99.90
37594;DHT22;23441;50.856;6.076;2022-09-01T03:38:53;13.10;99.90
37594;DHT22;23441;50.856;6.076;2022-09-01T03:41:23;13.10;99.90
37594;DHT22;23441;50.856;6.076;2022-09-01T03:43:53;13.20;99.90
37594;DHT22;23441;50.856;6.076;2022-09-01T03:46:24;13.20;99.90
37594;DHT22;23441;50.856;6.076;2022-09-01T03:48:54;13.10;99.90
37594;DHT22;23441;50.856;6.076;2022-09-01T03:51:24;13.20;99.90
37594;DHT22;23441;50.856;6.076;2022-09-01T03:53:52;13.20;99.90
37594;DHT22;23441;50.856;6.076;2022-09-01T03:56:22;13.10;99.90
37594;DHT22;23441;50.856;6.076;2022-09-01T03:58:52;13.10;99.90
37594;DHT22;23441;50.856;6.076;2022-09-01T04:01:21;13.10;99.90
37594;DHT22;23441;50.856;6.076;2022-09-01T04:03:47;13.10;99.90
37594;DHT22;23441;50.856;6.076;2022-09-01T04:06:14;13.10;99.90
37594;DHT22;23441;50.856;6.076;2022-09-01T04:08:43;13.00;99.90
37594;DHT22;23441;50.856;6.076;2022-09-01T04:11:14;13.10;99.90
37594;DHT22;23441;50.856;6.076;2022-09-01T04:13:44;13.10;99.90
37594;DHT22;23441;50.856;6.076;2022-09-01T04:16:28;13.10;99.90
37594;DHT22;23441;50.856;6.076;2022-09-01T04:19:19;13.10;99.90
37594;DHT22;23441;50.856;6.076;2022-09-01T04:21:53;13.00;99.90
37594;DHT22;23441;50.856;6.076;2022-09-01T04:24:23;12.90;99.90
37594;DHT22;23441;50.856;6.076;2022-09-01T04:26:54;12.90;99.90
37594;DHT22;23441;50.856;6.076;2022-09-01T04:29:23;12.80;99.90
37594;DHT22;23441;50.856;6.076;2022-09-01T04:31:57;12.90;99.90
37594;DHT22;23441;50.856;6.076;2022-09-01T04:34:29;12.90;99.90
37594;DHT22;23441;50.856;6.076;2022-09-01T04:37:10;12.80;99.90
37594;DHT22;23441;50.856;6.076;2022-09-01T04:39:38;12.80;99.90
37594;DHT22;23441;50.856;6.076;2022-09-01T04:42:05;12.80;99.90
37594;DHT22;23441;50.856;6.076;2022-09-01T04:44:33;12.70;99.90
37594;DHT22;23441;50.856;6.076;2022-09-01T04:47:00;12.70;99.90
37594;DHT22;23441;50.856;6.076;2022-09-01T04:49:26;12.70;99.90
37594;DHT22;23441;50.856;6.076;2022-09-01T04:51:58;12.60;99.90
37594;DHT22;23441;50.856;6.076;2022-09-01T04:54:24;12.70;99.90
37594;DHT22;23441;50.856;6.076;2022-09-01T04:56:51;12.70;99.90
37594;DHT22;23441;50.856;6.076;2022-09-01T04:59:22;12.70;99.90
37594;DHT22;23441;50.856;6.076;2022-09-01T05:01:51;12.70;99.90
37594;DHT22;23441;50.856;6.076;2022-09-01T05:04:22;12.80;99.90
37594;DHT22;23441;50.856;6.076;2022-09-01T05:06:55;12.70;99.90
37594;DHT22;23441;50.856;6.076;2022-09-01T05:09:27;12.80;99.90
37594;DHT22;23441;50.856;6.076;2022-09-01T05:11:55;12.70;99.90
37594;DHT22;23441;50.856;6.076;2022-09-01T05:14:22;12.80;99.90
37594;DHT22;23441;50.856;6.076;2022-09-01T05:16:49;12.80;99.90
37594;DHT22;23441;50.856;6.076;2022-09-01T05:19:16;12.80;99.90
37594;DHT22;23441;50.856;6.076;2022-09-01T05:21:46;12.90;99.90
37594;DHT22;23441;50.856;6.076;2022-09-01T05:24:17;12.90;99.90
37594;DHT22;23441;50.856;6.076;2022-09-01T05:26:45;12.90;99.90
37594;DHT22;23441;50.856;6.076;2022-09-01T05:29:15;12.90;99.90
37594;DHT22;23441;50.856;6.076;2022-09-01T05:31:46;12.90;99.90
37594;DHT22;23441;50.856;6.076;2022-09-01T05:34:14;12.90;99.90
37594;DHT22;23441;50.856;6.076;2022-09-01T05:36:45;13.00;99.90
37594;DHT22;23441;50.856;6.076;2022-09-01T05:39:15;13.10;99.90
37594;DHT22;23441;50.856;6.076;2022-09-01T05:41:42;13.00;99.90
37594;DHT22;23441;50.856;6.076;2022-09-01T05:44:11;13.20;99.90
37594;DHT22;23441;50.856;6.076;2022-09-01T05:46:39;13.40;99.90
37594;DHT22;23441;50.856;6.076;2022-09-01T05:49:06;13.40;99.90
37594;DHT22;23441;50.856;6.076;2022-09-01T05:51:40;13.40;99.90
37594;DHT22;23441;50.856;6.076;2022-09-01T05:54:09;13.50;99.90
37594;DHT22;23441;50.856;6.076;2022-09-01T05:56:37;13.50;99.90
37594;DHT22;23441;50.856;6.076;2022-09-01T05:59:05;13.60;99.90
37594;DHT22;23441;50.856;6.076;2022-09-01T06:01:31;13.70;99.90
37594;DHT22;23441;50.856;6.076;2022-09-01T06:03:59;13.70;99.90
37594;DHT22;23441;50.856;6.076;2022-09-01T06:06:44;13.80;99.90
37594;DHT22;23441;50.856;6.076;2022-09-01T06:09:15;13.90;99.90
37594;DHT22;23441;50.856;6.076;2022-09-01T06:11:48;14.00;99.90
37594;DHT22;23441;50.856;6.076;2022-09-01T06:14:15;14.10;99.90
37594;DHT22;23441;50.856;6.076;2022-09-01T06:16:42;14.10;99.90
37594;DHT22;23441;50.856;6.076;2022-09-01T06:19:09;14.20;99.90
37594;DHT22;23441;50.856;6.076;2022-09-01T06:21:40;14.30;99.90
37594;DHT22;23441;50.856;6.076;2022-09-01T06:24:06;14.40;99.90
37594;DHT22;23441;50.856;6.076;2022-09-01T06:26:34;14.40;99.90
37594;DHT22;23441;50.856;6.076;2022-09-01T06:29:04;14.60;99.90
37594;DHT22;23441;50.856;6.076;2022-09-01T06:31:35;14.60;99.90
37594;DHT22;23441;50.856;6.076;2022-09-01T06:34:06;14.80;99.90
37594;DHT22;23441;50.856;6.076;2022-09-01T06:36:35;15.00;99.90
37594;DHT22;23441;50.856;6.076;2022-09-01T06:39:06;15.30;99.90
37594;DHT22;23441;50.856;6.076;2022-09-01T06:41:33;15.60;99.90
37594;DHT22;23441;50.856;6.076;2022-09-01T06:44:02;16.00;99.90
37594;DHT22;23441;50.856;6.076;2022-09-01T06:46:28;16.20;99.90
37594;DHT22;23441;50.856;6.076;2022-09-01T06:48:55;16.20;99.90
37594;DHT22;23441;50.856;6.076;2022-09-01T06:51:24;16.20;99.90
37594;DHT22;23441;50.856;6.076;2022-09-01T06:53:55;16.20;99.90
37594;DHT22;23441;50.856;6.076;2022-09-01T06:56:28;16.30;99.90
37594;DHT22;23441;50.856;6.076;2022-09-01T06:58:56;16.30;99.90
37594;DHT22;23441;50.856;6.076;2022-09-01T07:01:24;16.40;99.90
37594;DHT22;23441;50.856;6.076;2022-09-01T07:03:52;16.60;99.90
37594;DHT22;23441;50.856;6.076;2022-09-01T07:06:21;16.90;99.90
37594;DHT22;23441;50.856;6.076;2022-09-01T07:08:56;17.10;99.90
37594;DHT22;23441;50.856;6.076;2022-09-01T07:11:29;17.10;99.90
37594;DHT22;23441;50.856;6.076;2022-09-01T07:14:04;17.10;99.90
37594;DHT22;23441;50.856;6.076;2022-09-01T07:16:34;17.10;99.90
37594;DHT22;23441;50.856;6.076;2022-09-01T07:19:06;17.00;99.90
37594;DHT22;23441;50.856;6.076;2022-09-01T07:21:41;17.00;99.90
37594;DHT22;23441;50.856;6.076;2022-09-01T07:24:09;17.00;99.90
37594;DHT22;23441;50.856;6.076;2022-09-01T07:26:36;17.00;99.90
37594;DHT22;23441;50.856;6.076;2022-09-01T07:29:04;17.00;99.90
37594;DHT22;23441;50.856;6.076;2022-09-01T07:31:34;17.10;99.90
37594;DHT22;23441;50.856;6.076;2022-09-01T07:34:05;17.10;99.90
37594;DHT22;23441;50.856;6.076;2022-09-01T07:36:37;17.20;99.90
37594;DHT22;23441;50.856;6.076;2022-09-01T07:39:05;17.30;99.90
37594;DHT22;23441;50.856;6.076;2022-09-01T07:41:32;17.40;99.90
37594;DHT22;23441;50.856;6.076;2022-09-01T07:44:00;17.50;99.90
37594;DHT22;23441;50.856;6.076;2022-09-01T07:46:30;17.60;99.90
37594;DHT22;23441;50.856;6.076;2022-09-01T07:48:58;17.60;99.90
37594;DHT22;23441;50.856;6.076;2022-09-01T07:51:27;17.60;99.90
37594;DHT22;23441;50.856;6.076;2022-09-01T07:53:55;17.70;99.90
37594;DHT22;23441;50.856;6.076;2022-09-01T07:56:23;17.80;99.90
37594;DHT22;23441;50.856;6.076;2022-09-01T07:58:51;17.80;99.90
37594;DHT22;23441;50.856;6.076;2022-09-01T08:01:23;18.00;99.90
37594;DHT22;23441;50.856;6.076;2022-09-01T08:03:57;18.10;99.90
37594;DHT22;23441;50.856;6.076;2022-09-01T08:06:26;18.10;99.90
37594;DHT22;23441;50.856;6.076;2022-09-01T08:08:55;18.10;99.90
37594;DHT22;23441;50.856;6.076;2022-09-01T08:11:25;18.20;99.90
37594;DHT22;23441;50.856;6.076;2022-09-01T08:13:54;18.60;99.90
37594;DHT22;23441;50.856;6.076;2022-09-01T08:16:24;18.70;99.90
37594;DHT22;23441;50.856;6.076;2022-09-01T08:18:51;18.80;99.90
37594;DHT22;23441;50.856;6.076;2022-09-01T08:21:19;18.80;99.90
37594;DHT22;23441;50.856;6.076;2022-09-01T08:23:49;19.00;99.90
37594;DHT22;23441;50.856;6.076;2022-09-01T08:26:18;19.10;99.90
37594;DHT22;23441;50.856;6.076;2022-09-01T08:28:47;19.10;99.90
37594;DHT22;23441;50.856;6.076;2022-09-01T08:31:15;19.00;99.90
37594;DHT22;23441;50.856;6.076;2022-09-01T08:33:45;19.10;99.90
37594;DHT22;23441;50.856;6.076;2022-09-01T08:36:14;19.10;99.90
37594;DHT22;23441;50.856;6.076;2022-09-01T08:38:41;19.10;99.90
37594;DHT22;23441;50.856;6.076;2022-09-01T08:41:18;19.00;99.90
37594;DHT22;23441;50.856;6.076;2022-09-01T08:46:38;19.10;99.90
37594;DHT22;23441;50.856;6.076;2022-09-01T08:49:19;19.00;99.90
37594;DHT22;23441;50.856;6.076;2022-09-01T08:52:32;19.20;99.90
37594;DHT22;23441;50.856;6.076;2022-09-01T08:57:44;19.20;99.90
37594;DHT22;23441;50.856;6.076;2022-09-01T09:00:13;19.20;99.90
37594;DHT22;23441;50.856;6.076;2022-09-01T09:09:54;19.40;99.90
37594;DHT22;23441;50.856;6.076;2022-09-01T09:17:57;20.00;99.90
37594;DHT22;23441;50.856;6.076;2022-09-01T09:20:28;19.90;99.90
37594;DHT22;23441;50.856;6.076;2022-09-01T09:22:54;19.80;99.90
37594;DHT22;23441;50.856;6.076;2022-09-01T09:25:21;20.00;99.90
37594;DHT22;23441;50.856;6.076;2022-09-01T09:27:50;20.10;99.90
37594;DHT22;23441;50.856;6.076;2022-09-01T09:30:23;20.20;99.90
37594;DHT22;23441;50.856;6.076;2022-09-01T09:33:03;20.20;99.90
37594;DHT22;23441;50.856;6.076;2022-09-01T09:43:51;20.60;99.90
37594;DHT22;23441;50.856;6.076;2022-09-01T09:51:57;20.80;99.90
37594;DHT22;23441;50.856;6.076;2022-09-01T09:54:41;20.90;99.90
37594;DHT22;23441;50.856;6.076;2022-09-01T09:57:37;20.90;99.90
37594;DHT22;23441;50.856;6.076;2022-09-01T10:02:57;21.00;99.90
37594;DHT22;23441;50.856;6.076;2022-09-01T10:05:48;21.10;99.90
37594;DHT22;23441;50.856;6.076;2022-09-01T10:10:59;21.10;99.90
37594;DHT22;23441;50.856;6.076;2022-09-01T10:13:26;21.10;99.90
37594;DHT22;23441;50.856;6.076;2022-09-01T10:15:58;21.20;99.90
37594;DHT22;23441;50.856;6.076;2022-09-01T10:18:40;21.20;99.90
37594;DHT22;23441;50.856;6.076;2022-09-01T10:21:11;21.20;99.70
37594;DHT22;23441;50.856;6.076;2022-09-01T10:23:40;21.30;99.90
37594;DHT22;23441;50.856;6.076;2022-09-01T10:26:23;21.30;96.30
37594;DHT22;23441;50.856;6.076;2022-09-01T10:29:00;21.30;98.50
37594;DHT22;23441;50.856;6.076;2022-09-01T10:31:29;21.40;98.30
37594;DHT22;23441;50.856;6.076;2022-09-01T10:33:56;21.40;98.10
37594;DHT22;23441;50.856;6.076;2022-09-01T10:36:23;21.50;99.60
37594;DHT22;23441;50.856;6.076;2022-09-01T10:38:49;21.60;98.90
37594;DHT22;23441;50.856;6.076;2022-09-01T10:44:25;21.50;96.80
37594;DHT22;23441;50.856;6.076;2022-09-01T10:47:02;21.60;97.30
37594;DHT22;23441;50.856;6.076;2022-09-01T10:55:18;21.70;96.30
37594;DHT22;23441;50.856;6.076;2022-09-01T10:57:49;21.80;94.30
37594;DHT22;23441;50.856;6.076;2022-09-01T11:08:23;22.30;93.40
37594;DHT22;23441;50.856;6.076;2022-09-01T11:13:53;23.40;92.00
37594;DHT22;23441;50.856;6.076;2022-09-01T11:16:39;23.50;88.40
37594;DHT22;23441;50.856;6.076;2022-09-01T11:19:34;23.70;90.50
37594;DHT22;23441;50.856;6.076;2022-09-01T11:22:24;23.60;86.30
37594;DHT22;23441;50.856;6.076;2022-09-01T11:30:31;23.40;87.60
37594;DHT22;23441;50.856;6.076;2022-09-01T11:36:05;23.50;86.40
37594;DHT22;23441;50.856;6.076;2022-09-01T11:44:14;24.20;86.40
37594;DHT22;23441;50.856;6.076;2022-09-01T11:46:49;24.10;84.20
37594;DHT22;23441;50.856;6.076;2022-09-01T11:49:31;24.30;85.30
37594;DHT22;23441;50.856;6.076;2022-09-01T11:52:00;24.50;82.30
37594;DHT22;23441;50.856;6.076;2022-09-01T11:54:28;24.50;84.50
37594;DHT22;23441;50.856;6.076;2022-09-01T11:57:27;24.10;85.10
37594;DHT22;23441;50.856;6.076;2022-09-01T12:00:00;24.40;82.80
37594;DHT22;23441;50.856;6.076;2022-09-01T12:02:33;24.40;83.60
37594;DHT22;23441;50.856;6.076;2022-09-01T12:05:02;24.80;83.40
37594;DHT22;23441;50.856;6.076;2022-09-01T12:10:28;25.40;83.30
37594;DHT22;23441;50.856;6.076;2022-09-01T12:13:08;25.30;82.10
37594;DHT22;23441;50.856;6.076;2022-09-01T12:15:39;25.10;80.70
37594;DHT22;23441;50.856;6.076;2022-09-01T12:18:17;25.30;81.80
37594;DHT22;23441;50.856;6.076;2022-09-01T12:20:50;25.40;81.50
37594;DHT22;23441;50.856;6.076;2022-09-01T12:23:26;25.40;82.00
37594;DHT22;23441;50.856;6.076;2022-09-01T12:26:05;25.20;83.20
37594;DHT22;23441;50.856;6.076;2022-09-01T12:28:35;25.80;84.00
37594;DHT22;23441;50.856;6.076;2022-09-01T12:31:12;26.00;80.70
37594;DHT22;23441;50.856;6.076;2022-09-01T12:33:42;25.80;83.20
37594;DHT22;23441;50.856;6.076;2022-09-01T12:36:33;25.50;81.70
37594;DHT22;23441;50.856;6.076;2022-09-01T12:39:20;25.30;81.30
37594;DHT22;23441;50.856;6.076;2022-09-01T12:42:07;25.50;84.40
37594;DHT22;23441;50.856;6.076;2022-09-01T12:45:00;25.50;80.30
37594;DHT22;23441;50.856;6.076;2022-09-01T12:52:48;25.00;85.60
37594;DHT22;23441;50.856;6.076;2022-09-01T12:55:24;24.60;82.10
37594;DHT22;23441;50.856;6.076;2022-09-01T12:57:58;25.00;84.70
37594;DHT22;23441;50.856;6.076;2022-09-01T13:00:27;25.70;82.30
37594;DHT22;23441;50.856;6.076;2022-09-01T13:05:34;25.90;80.00
37594;DHT22;23441;50.856;6.076;2022-09-01T13:08:27;26.40;79.80
37594;DHT22;23441;50.856;6.076;2022-09-01T13:13:35;26.90;77.90
37594;DHT22;23441;50.856;6.076;2022-09-01T13:16:02;27.00;80.70
37594;DHT22;23441;50.856;6.076;2022-09-01T13:18:41;26.70;79.70
37594;DHT22;23441;50.856;6.076;2022-09-01T13:21:08;26.90;81.90
37594;DHT22;23441;50.856;6.076;2022-09-01T13:23:34;27.10;78.40
37594;DHT22;23441;50.856;6.076;2022-09-01T13:26:01;27.20;77.50
37594;DHT22;23441;50.856;6.076;2022-09-01T13:28:27;27.10;77.70
37594;DHT22;23441;50.856;6.076;2022-09-01T13:30:56;27.30;78.90
37594;DHT22;23441;50.856;6.076;2022-09-01T13:33:27;27.10;79.10
37594;DHT22;23441;50.856;6.076;2022-09-01T13:35:54;27.30;81.50
37594;DHT22;23441;50.856;6.076;2022-09-01T13:38:20;27.40;79.90
37594;DHT22;23441;50.856;6.076;2022-09-01T13:40:47;26.70;78.60
37594;DHT22;23441;50.856;6.076;2022-09-01T13:43:16;26.60;79.10
37594;DHT22;23441;50.856;6.076;2022-09-01T13:45:44;26.50;79.90
37594;DHT22;23441;50.856;6.076;2022-09-01T13:48:11;26.10;80.20
37594;DHT22;23441;50.856;6.076;2022-09-01T13:50:38;25.80;81.30
37594;DHT22;23441;50.856;6.076;2022-09-01T13:53:04;25.50;79.40
37594;DHT22;23441;50.856;6.076;2022-09-01T13:55:32;25.80;80.70
37594;DHT22;23441;50.856;6.076;2022-09-01T13:58:00;25.40;81.20
37594;DHT22;23441;50.856;6.076;2022-09-01T14:00:30;25.50;81.30
37594;DHT22;23441;50.856;6.076;2022-09-01T14:03:01;25.80;81.80
37594;DHT22;23441;50.856;6.076;2022-09-01T14:05:31;26.10;82.00
37594;DHT22;23441;50.856;6.076;2022-09-01T14:08:00;26.50;81.20
37594;DHT22;23441;50.856;6.076;2022-09-01T14:10:28;26.60;77.90
37594;DHT22;23441;50.856;6.076;2022-09-01T14:12:56;26.80;80.50
37594;DHT22;23441;50.856;6.076;2022-09-01T14:15:23;26.90;78.50
37594;DHT22;23441;50.856;6.076;2022-09-01T14:17:51;27.00;79.50
37594;DHT22;23441;50.856;6.076;2022-09-01T14:20:21;26.90;81.00
37594;DHT22;23441;50.856;6.076;2022-09-01T14:22:49;26.60;80.20
37594;DHT22;23441;50.856;6.076;2022-09-01T14:25:17;26.60;80.70
37594;DHT22;23441;50.856;6.076;2022-09-01T14:27:45;26.80;81.20
37594;DHT22;23441;50.856;6.076;2022-09-01T14:30:17;26.90;79.10
37594;DHT22;23441;50.856;6.076;2022-09-01T14:32:50;27.10;78.50
37594;DHT22;23441;50.856;6.076;2022-09-01T14:35:20;26.80;78.10
37594;DHT22;23441;50.856;6.076;2022-09-01T14:37:50;26.80;79.00
37594;DHT22;23441;50.856;6.076;2022-09-01T14:40:21;26.90;78.70
37594;DHT22;23441;50.856;6.076;2022-09-01T14:42:51;26.90;79.10
37594;DHT22;23441;50.856;6.076;2022-09-01T14:45:20;27.10;78.60
37594;DHT22;23441;50.856;6.076;2022-09-01T14:47:49;26.90;77.10
37594;DHT22;23441;50.856;6.076;2022-09-01T14:50:19;26.60;79.30
37594;DHT22;23441;50.856;6.076;2022-09-01T14:52:47;26.40;77.90
37594;DHT22;23441;50.856;6.076;2022-09-01T14:55:14;26.30;77.80
37594;DHT22;23441;50.856;6.076;2022-09-01T14:57:40;26.10;78.30
37594;DHT22;23441;50.856;6.076;2022-09-01T15:00:09;26.10;79.30
37594;DHT22;23441;50.856;6.076;2022-09-01T15:02:41;26.00;78.80
37594;DHT22;23441;50.856;6.076;2022-09-01T15:05:08;26.00;78.70
37594;DHT22;23441;50.856;6.076;2022-09-01T15:07:35;26.00;80.00
37594;DHT22;23441;50.856;6.076;2022-09-01T15:10:04;26.10;80.80
37594;DHT22;23441;50.856;6.076;2022-09-01T15:12:31;26.00;77.20
37594;DHT22;23441;50.856;6.076;2022-09-01T15:14:58;26.00;79.30
37594;DHT22;23441;50.856;6.076;2022-09-01T15:17:25;26.10;77.90
37594;DHT22;23441;50.856;6.076;2022-09-01T15:19:52;26.00;77.70
37594;DHT22;23441;50.856;6.076;2022-09-01T15:22:18;26.00;77.50
37594;DHT22;23441;50.856;6.076;2022-09-01T15:24:44;25.90;75.80
37594;DHT22;23441;50.856;6.076;2022-09-01T15:27:11;25.90;78.30
37594;DHT22;23441;50.856;6.076;2022-09-01T15:29:37;26.00;79.30
37594;DHT22;23441;50.856;6.076;2022-09-01T15:32:11;25.80;77.80
37594;DHT22;23441;50.856;6.076;2022-09-01T15:34:37;25.90;77.80
37594;DHT22;23441;50.856;6.076;2022-09-01T15:37:04;26.00;77.20
37594;DHT22;23441;50.856;6.076;2022-09-01T15:39:30;26.00;78.80
37594;DHT22;23441;50.856;6.076;2022-09-01T15:41:56;25.80;78.10
37594;DHT22;23441;50.856;6.076;2022-09-01T15:44:22;25.80;77.70
37594;DHT22;23441;50.856;6.076;2022-09-01T15:46:48;25.70;77.00
37594;DHT22;23441;50.856;6.076;2022-09-01T15:49:15;25.60;77.80
37594;DHT22;23441;50.856;6.076;2022-09-01T15:51:43;25.50;77.30
37594;DHT22;23441;50.856;6.076;2022-09-01T15:54:13;25.30;76.90
37594;DHT22;23441;50.856;6.076;2022-09-01T15:56:41;25.20;78.20
37594;DHT22;23441;50.856;6.076;2022-09-01T15:59:08;25.00;76.00
37594;DHT22;23441;50.856;6.076;2022-09-01T16:01:37;24.80;76.50
37594;DHT22;23441;50.856;6.076;2022-09-01T16:04:06;24.70;77.00
37594;DHT22;23441;50.856;6.076;2022-09-01T16:06:34;24.60;77.50
37594;DHT22;23441;50.856;6.076;2022-09-01T16:09:00;24.40;78.20
37594;DHT22;23441;50.856;6.076;2022-09-01T16:11:26;24.30;80.60
37594;DHT22;23441;50.856;6.076;2022-09-01T16:13:53;24.30;80.10
37594;DHT22;23441;50.856;6.076;2022-09-01T16:16:33;24.30;80.20
37594;DHT22;23441;50.856;6.076;2022-09-01T16:24:51;24.60;78.50
37594;DHT22;23441;50.856;6.076;2022-09-01T16:27:21;24.60;81.30
37594;DHT22;23441;50.856;6.076;2022-09-01T16:29:54;24.70;79.80
37594;DHT22;23441;50.856;6.076;2022-09-01T16:32:22;24.70;79.50
37594;DHT22;23441;50.856;6.076;2022-09-01T16:34:50;24.60;80.10
37594;DHT22;23441;50.856;6.076;2022-09-01T16:37:43;24.60;80.30
37594;DHT22;23441;50.856;6.076;2022-09-01T16:46:52;24.20;80.20
37594;DHT22;23441;50.856;6.076;2022-09-01T16:52:27;24.20;82.70
37594;DHT22;23441;50.856;6.076;2022-09-01T16:58:24;24.00;82.90
37594;DHT22;23441;50.856;6.076;2022-09-01T17:12:49;23.60;82.40
37594;DHT22;23441;50.856;6.076;2022-09-01T17:15:37;23.40;83.20
37594;DHT22;23441;50.856;6.076;2022-09-01T17:18:27;23.30;83.50
37594;DHT22;23441;50.856;6.076;2022-09-01T17:24:06;23.20;85.00
37594;DHT22;23441;50.856;6.076;2022-09-01T17:26:40;23.10;84.00
37594;DHT22;23441;50.856;6.076;2022-09-01T17:29:21;23.00;85.80
37594;DHT22;23441;50.856;6.076;2022-09-01T17:35:23;22.80;86.00
37594;DHT22;23441;50.856;6.076;2022-09-01T17:38:08;22.70;86.50
37594;DHT22;23441;50.856;6.076;2022-09-01T17:46:58;22.50;87.50
37594;DHT22;23441;50.856;6.076;2022-09-01T17:58:15;22.20;86.90
37594;DHT22;23441;50.856;6.076;2022-09-01T18:01:03;22.00;87.80
37594;DHT22;23441;50.856;6.076;2022-09-01T18:06:55;21.80;89.60
37594;DHT22;23441;50.856;6.076;2022-09-01T18:09:29;21.70;89.40
37594;DHT22;23441;50.856;6.076;2022-09-01T18:11:58;21.60;89.30
37594;DHT22;23441;50.856;6.076;2022-09-01T18:14:51;21.50;90.00
37594;DHT22;23441;50.856;6.076;2022-09-01T18:17:29;21.40;90.20